sensor_id;sensor_type;location;lat;lon;timestamp;P1;durP1;ratioP1;P2;durP2;ratioP2
19038;SDS011;9652;49.014;12.052;2022-10-17T00:00:39;4.30;;;3.43;;
19038;SDS011;9652;49.014;12.052;2022-10-17T00:03:07;7.13;;;3.20;;
19038;SDS011;9652;49.014;12.052;2022-10-17T00:05:37;5.90;;;2.80;;
19038;SDS011;9652;49.014;12.052;2022-10-17T00:08:06;3.40;;;2.90;;
19038;SDS011;9652;49.014;12.052;2022-10-17T00:10:35;5.37;;;3.17;;
19038;SDS011;9652;49.014;12.052;2022-10-17T00:13:03;3.90;;;3.07;;
19038;SDS011;9652;49.014;12.052;2022-10-17T00:15:31;3.87;;;3.13;;
19038;SDS011;9652;49.014;12.052;2022-10-17T00:17:58;5.90;;;3.50;;
19038;SDS011;9652;49.014;12.052;2022-10-17T00:20:25;4.00;;;3.30;;
19038;SDS011;9652;49.014;12.052;2022-10-17T00:22:54;3.70;;;3.10;;
19038;SDS011;9652;49.014;12.052;2022-10-17T00:25:21;4.30;;;3.40;;
19038;SDS011;9652;49.014;12.052;2022-10-17T00:27:50;4.23;;;2.73;;
19038;SDS011;9652;49.014;12.052;2022-10-17T00:30:17;3.53;;;3.10;;
19038;SDS011;9652;49.014;12.052;2022-10-17T00:32:44;3.77;;;3.03;;
19038;SDS011;9652;49.014;12.052;2022-10-17T00:35:11;3.77;;;3.23;;
19038;SDS011;9652;49.014;12.052;2022-10-17T00:37:40;3.03;;;2.73;;
19038;SDS011;9652;49.014;12.052;2022-10-17T00:40:08;4.43;;;2.90;;
19038;SDS011;9652;49.014;12.052;2022-10-17T00:42:37;4.60;;;3.30;;
19038;SDS011;9652;49.014;12.052;2022-10-17T00:45:09;4.93;;;3.20;;
19038;SDS011;9652;49.014;12.052;2022-10-17T00:47:46;5.77;;;2.87;;
19038;SDS011;9652;49.014;12.052;2022-10-17T00:50:18;6.67;;;2.50;;
19038;SDS011;9652;49.014;12.052;2022-10-17T00:52:47;2.93;;;2.63;;
19038;SDS011;9652;49.014;12.052;2022-10-17T00:55:17;3.33;;;2.70;;
19038;SDS011;9652;49.014;12.052;2022-10-17T00:57:49;4.00;;;3.10;;
19038;SDS011;9652;49.014;12.052;2022-10-17T01:00:19;4.03;;;3.00;;
19038;SDS011;9652;49.014;12.052;2022-10-17T01:02:47;3.67;;;2.80;;
19038;SDS011;9652;49.014;12.052;2022-10-17T01:05:15;5.57;;;3.33;;
19038;SDS011;9652;49.014;12.052;2022-10-17T01:07:44;3.93;;;3.40;;
19038;SDS011;9652;49.014;12.052;2022-10-17T01:10:14;4.00;;;3.17;;
19038;SDS011;9652;49.014;12.052;2022-10-17T01:12:45;3.57;;;3.03;;
19038;SDS011;9652;49.014;12.052;2022-10-17T01:15:31;3.13;;;2.93;;
19038;SDS011;9652;49.014;12.052;2022-10-17T01:18:12;4.20;;;2.63;;
19038;SDS011;9652;49.014;12.052;2022-10-17T01:24:11;3.47;;;2.60;;
19038;SDS011;9652;49.014;12.052;2022-10-17T01:30:25;3.30;;;2.70;;
19038;SDS011;9652;49.014;12.052;2022-10-17T01:33:22;3.00;;;2.80;;
19038;SDS011;9652;49.014;12.052;2022-10-17T01:36:04;4.00;;;2.47;;
19038;SDS011;9652;49.014;12.052;2022-10-17T01:38:42;5.13;;;2.53;;
19038;SDS011;9652;49.014;12.052;2022-10-17T01:41:16;2.87;;;2.63;;
19038;SDS011;9652;49.014;12.052;2022-10-17T01:43:53;3.40;;;3.10;;
19038;SDS011;9652;49.014;12.052;2022-10-17T01:46:31;3.57;;;2.80;;
19038;SDS011;9652;49.014;12.052;2022-10-17T01:49:03;5.57;;;4.27;;
19038;SDS011;9652;49.014;12.052;2022-10-17T01:51:35;3.00;;;2.73;;
19038;SDS011;9652;49.014;12.052;2022-10-17T01:54:08;2.93;;;2.63;;
19038;SDS011;9652;49.014;12.052;2022-10-17T01:56:40;2.63;;;2.43;;
19038;SDS011;9652;49.014;12.052;2022-10-17T01:59:11;3.40;;;3.10;;
19038;SDS011;9652;49.014;12.052;2022-10-17T02:01:47;3.03;;;2.40;;
19038;SDS011;9652;49.014;12.052;2022-10-17T02:04:18;4.33;;;2.60;;
19038;SDS011;9652;49.014;12.052;2022-10-17T02:06:46;3.13;;;2.70;;
19038;SDS011;9652;49.014;12.052;2022-10-17T02:09:15;2.63;;;2.43;;
19038;SDS011;9652;49.014;12.052;2022-10-17T02:12:00;2.57;;;2.37;;
19038;SDS011;9652;49.014;12.052;2022-10-17T02:14:47;2.73;;;2.53;;
19038;SDS011;9652;49.014;12.052;2022-10-17T02:17:38;2.73;;;2.47;;
19038;SDS011;9652;49.014;12.052;2022-10-17T02:20:19;2.50;;;2.30;;
19038;SDS011;9652;49.014;12.052;2022-10-17T02:22:55;2.67;;;2.47;;
19038;SDS011;9652;49.014;12.052;2022-10-17T02:25:32;3.80;;;2.80;;
19038;SDS011;9652;49.014;12.052;2022-10-17T02:28:08;2.93;;;2.43;;
19038;SDS011;9652;49.014;12.052;2022-10-17T02:30:48;2.50;;;2.30;;
19038;SDS011;9652;49.014;12.052;2022-10-17T02:33:26;2.80;;;2.60;;
19038;SDS011;9652;49.014;12.052;2022-10-17T02:36:01;3.17;;;2.87;;
19038;SDS011;9652;49.014;12.052;2022-10-17T02:38:34;2.80;;;2.60;;
19038;SDS011;9652;49.014;12.052;2022-10-17T02:41:03;3.20;;;2.83;;
19038;SDS011;9652;49.014;12.052;2022-10-17T02:43:35;3.30;;;3.00;;
19038;SDS011;9652;49.014;12.052;2022-10-17T02:46:04;3.10;;;2.80;;
19038;SDS011;9652;49.014;12.052;2022-10-17T02:48:35;3.27;;;2.47;;
19038;SDS011;9652;49.014;12.052;2022-10-17T02:51:11;2.70;;;2.50;;
19038;SDS011;9652;49.014;12.052;2022-10-17T02:53:51;2.90;;;2.67;;
19038;SDS011;9652;49.014;12.052;2022-10-17T02:56:30;2.97;;;2.77;;
19038;SDS011;9652;49.014;12.052;2022-10-17T02:59:05;2.80;;;2.60;;
19038;SDS011;9652;49.014;12.052;2022-10-17T03:01:37;5.57;;;2.90;;
19038;SDS011;9652;49.014;12.052;2022-10-17T03:04:07;2.53;;;2.33;;
19038;SDS011;9652;49.014;12.052;2022-10-17T03:06:36;4.40;;;2.80;;
19038;SDS011;9652;49.014;12.052;2022-10-17T03:09:03;4.43;;;2.80;;
19038;SDS011;9652;49.014;12.052;2022-10-17T03:11:32;2.97;;;2.77;;
19038;SDS011;9652;49.014;12.052;2022-10-17T03:14:00;3.43;;;3.10;;
19038;SDS011;9652;49.014;12.052;2022-10-17T03:16:27;6.07;;;2.80;;
19038;SDS011;9652;49.014;12.052;2022-10-17T03:18:54;2.30;;;2.10;;
19038;SDS011;9652;49.014;12.052;2022-10-17T03:21:23;4.07;;;3.40;;
19038;SDS011;9652;49.014;12.052;2022-10-17T03:23:50;3.73;;;2.53;;
19038;SDS011;9652;49.014;12.052;2022-10-17T03:26:20;2.83;;;2.53;;
19038;SDS011;9652;49.014;12.052;2022-10-17T03:28:47;5.53;;;2.90;;
19038;SDS011;9652;49.014;12.052;2022-10-17T03:31:15;4.37;;;2.57;;
19038;SDS011;9652;49.014;12.052;2022-10-17T03:33:44;3.67;;;3.37;;
19038;SDS011;9652;49.014;12.052;2022-10-17T03:36:12;2.77;;;2.30;;
19038;SDS011;9652;49.014;12.052;2022-10-17T03:38:44;3.70;;;2.50;;
19038;SDS011;9652;49.014;12.052;2022-10-17T03:41:14;2.50;;;2.30;;
19038;SDS011;9652;49.014;12.052;2022-10-17T03:43:41;2.83;;;2.63;;
19038;SDS011;9652;49.014;12.052;2022-10-17T03:46:08;4.73;;;2.83;;
19038;SDS011;9652;49.014;12.052;2022-10-17T03:48:36;3.17;;;2.60;;
19038;SDS011;9652;49.014;12.052;2022-10-17T03:51:05;2.90;;;2.57;;
19038;SDS011;9652;49.014;12.052;2022-10-17T03:53:46;3.90;;;2.27;;
19038;SDS011;9652;49.014;12.052;2022-10-17T03:56:15;6.37;;;2.53;;
19038;SDS011;9652;49.014;12.052;2022-10-17T03:58:51;3.07;;;2.83;;
19038;SDS011;9652;49.014;12.052;2022-10-17T04:01:19;5.23;;;2.80;;
19038;SDS011;9652;49.014;12.052;2022-10-17T04:03:47;2.90;;;2.60;;
19038;SDS011;9652;49.014;12.052;2022-10-17T04:06:17;3.00;;;2.70;;
19038;SDS011;9652;49.014;12.052;2022-10-17T04:08:46;3.13;;;2.83;;
19038;SDS011;9652;49.014;12.052;2022-10-17T04:11:20;2.87;;;2.67;;
19038;SDS011;9652;49.014;12.052;2022-10-17T04:13:51;2.97;;;2.67;;
19038;SDS011;9652;49.014;12.052;2022-10-17T04:16:19;3.97;;;2.47;;
19038;SDS011;9652;49.014;12.052;2022-10-17T04:18:54;2.70;;;2.50;;
19038;SDS011;9652;49.014;12.052;2022-10-17T04:21:26;4.13;;;2.67;;
19038;SDS011;9652;49.014;12.052;2022-10-17T04:23:59;3.10;;;2.33;;
19038;SDS011;9652;49.014;12.052;2022-10-17T04:26:56;2.80;;;2.60;;
19038;SDS011;9652;49.014;12.052;2022-10-17T04:29:26;2.83;;;2.63;;
19038;SDS011;9652;49.014;12.052;2022-10-17T04:32:04;4.63;;;2.70;;
19038;SDS011;9652;49.014;12.052;2022-10-17T04:34:40;2.67;;;2.47;;
19038;SDS011;9652;49.014;12.052;2022-10-17T04:37:08;2.77;;;2.57;;
19038;SDS011;9652;49.014;12.052;2022-10-17T04:39:36;6.00;;;2.73;;
19038;SDS011;9652;49.014;12.052;2022-10-17T04:42:03;4.83;;;2.90;;
19038;SDS011;9652;49.014;12.052;2022-10-17T04:44:31;3.80;;;2.93;;
19038;SDS011;9652;49.014;12.052;2022-10-17T04:47:00;3.47;;;2.90;;
19038;SDS011;9652;49.014;12.052;2022-10-17T04:49:27;3.53;;;2.60;;
19038;SDS011;9652;49.014;12.052;2022-10-17T04:52:03;4.17;;;2.50;;
19038;SDS011;9652;49.014;12.052;2022-10-17T04:54:37;4.37;;;2.53;;
19038;SDS011;9652;49.014;12.052;2022-10-17T04:57:07;2.60;;;2.40;;
19038;SDS011;9652;49.014;12.052;2022-10-17T04:59:35;2.73;;;2.43;;
19038;SDS011;9652;49.014;12.052;2022-10-17T05:02:32;4.57;;;2.50;;
19038;SDS011;9652;49.014;12.052;2022-10-17T05:05:01;3.43;;;2.73;;
19038;SDS011;9652;49.014;12.052;2022-10-17T05:07:28;3.63;;;2.57;;
19038;SDS011;9652;49.014;12.052;2022-10-17T05:10:08;2.57;;;2.37;;
19038;SDS011;9652;49.014;12.052;2022-10-17T05:12:35;2.93;;;2.73;;
19038;SDS011;9652;49.014;12.052;2022-10-17T05:15:04;2.90;;;2.50;;
19038;SDS011;9652;49.014;12.052;2022-10-17T05:17:33;2.50;;;2.30;;
19038;SDS011;9652;49.014;12.052;2022-10-17T05:20:00;2.33;;;2.10;;
19038;SDS011;9652;49.014;12.052;2022-10-17T05:22:29;2.80;;;2.60;;
19038;SDS011;9652;49.014;12.052;2022-10-17T05:24:56;2.93;;;2.63;;
19038;SDS011;9652;49.014;12.052;2022-10-17T05:27:25;4.27;;;2.20;;
19038;SDS011;9652;49.014;12.052;2022-10-17T05:29:52;3.00;;;2.70;;
19038;SDS011;9652;49.014;12.052;2022-10-17T05:32:25;2.50;;;2.30;;
19038;SDS011;9652;49.014;12.052;2022-10-17T05:34:52;4.90;;;2.50;;
19038;SDS011;9652;49.014;12.052;2022-10-17T05:37:21;3.27;;;2.97;;
19038;SDS011;9652;49.014;12.052;2022-10-17T05:39:51;2.90;;;2.57;;
19038;SDS011;9652;49.014;12.052;2022-10-17T05:42:18;6.53;;;2.90;;
19038;SDS011;9652;49.014;12.052;2022-10-17T05:44:47;3.63;;;2.73;;
19038;SDS011;9652;49.014;12.052;2022-10-17T05:47:17;4.27;;;2.90;;
19038;SDS011;9652;49.014;12.052;2022-10-17T05:49:44;2.90;;;2.70;;
19038;SDS011;9652;49.014;12.052;2022-10-17T05:52:12;3.23;;;2.93;;
19038;SDS011;9652;49.014;12.052;2022-10-17T05:54:52;3.57;;;2.87;;
19038;SDS011;9652;49.014;12.052;2022-10-17T05:57:20;5.43;;;3.00;;
19038;SDS011;9652;49.014;12.052;2022-10-17T05:59:52;3.43;;;2.80;;
19038;SDS011;9652;49.014;12.052;2022-10-17T06:02:19;5.83;;;3.10;;
19038;SDS011;9652;49.014;12.052;2022-10-17T06:04:47;3.30;;;2.97;;
19038;SDS011;9652;49.014;12.052;2022-10-17T06:07:15;3.87;;;3.17;;
19038;SDS011;9652;49.014;12.052;2022-10-17T06:09:43;3.10;;;2.80;;
19038;SDS011;9652;49.014;12.052;2022-10-17T06:12:10;4.33;;;2.80;;
19038;SDS011;9652;49.014;12.052;2022-10-17T06:14:37;4.67;;;3.20;;
19038;SDS011;9652;49.014;12.052;2022-10-17T06:17:07;4.53;;;3.27;;
19038;SDS011;9652;49.014;12.052;2022-10-17T06:19:34;7.77;;;2.70;;
19038;SDS011;9652;49.014;12.052;2022-10-17T06:22:01;5.23;;;3.03;;
19038;SDS011;9652;49.014;12.052;2022-10-17T06:24:30;7.67;;;3.30;;
19038;SDS011;9652;49.014;12.052;2022-10-17T06:27:01;4.57;;;3.30;;
19038;SDS011;9652;49.014;12.052;2022-10-17T06:29:28;3.73;;;3.17;;
19038;SDS011;9652;49.014;12.052;2022-10-17T06:31:55;6.57;;;3.17;;
19038;SDS011;9652;49.014;12.052;2022-10-17T06:34:25;3.37;;;2.97;;
19038;SDS011;9652;49.014;12.052;2022-10-17T06:36:52;5.80;;;3.20;;
19038;SDS011;9652;49.014;12.052;2022-10-17T06:39:20;6.17;;;3.03;;
19038;SDS011;9652;49.014;12.052;2022-10-17T06:42:02;7.07;;;3.07;;
19038;SDS011;9652;49.014;12.052;2022-10-17T06:45:05;3.90;;;3.03;;
19038;SDS011;9652;49.014;12.052;2022-10-17T06:47:40;7.67;;;3.23;;
19038;SDS011;9652;49.014;12.052;2022-10-17T06:50:27;6.20;;;2.80;;
19038;SDS011;9652;49.014;12.052;2022-10-17T06:53:08;2.70;;;2.50;;
19038;SDS011;9652;49.014;12.052;2022-10-17T06:55:56;4.43;;;3.00;;
19038;SDS011;9652;49.014;12.052;2022-10-17T06:58:53;3.87;;;2.53;;
19038;SDS011;9652;49.014;12.052;2022-10-17T07:01:33;3.07;;;2.77;;
19038;SDS011;9652;49.014;12.052;2022-10-17T07:04:02;5.10;;;2.93;;
19038;SDS011;9652;49.014;12.052;2022-10-17T07:06:31;10.23;;;2.77;;
19038;SDS011;9652;49.014;12.052;2022-10-17T07:09:04;16.13;;;2.50;;
19038;SDS011;9652;49.014;12.052;2022-10-17T07:11:34;4.03;;;2.87;;
19038;SDS011;9652;49.014;12.052;2022-10-17T07:14:02;2.90;;;2.57;;
19038;SDS011;9652;49.014;12.052;2022-10-17T07:16:29;7.53;;;2.70;;
19038;SDS011;9652;49.014;12.052;2022-10-17T07:19:03;2.90;;;2.60;;
19038;SDS011;9652;49.014;12.052;2022-10-17T07:21:35;4.30;;;2.70;;
19038;SDS011;9652;49.014;12.052;2022-10-17T07:24:03;7.80;;;3.27;;
19038;SDS011;9652;49.014;12.052;2022-10-17T07:26:32;7.03;;;2.93;;
19038;SDS011;9652;49.014;12.052;2022-10-17T07:28:59;6.77;;;2.50;;
19038;SDS011;9652;49.014;12.052;2022-10-17T07:31:34;6.37;;;2.83;;
19038;SDS011;9652;49.014;12.052;2022-10-17T07:34:01;6.73;;;3.00;;
19038;SDS011;9652;49.014;12.052;2022-10-17T07:36:28;5.03;;;2.67;;
19038;SDS011;9652;49.014;12.052;2022-10-17T07:38:59;4.90;;;2.67;;
19038;SDS011;9652;49.014;12.052;2022-10-17T07:41:28;6.87;;;2.97;;
19038;SDS011;9652;49.014;12.052;2022-10-17T07:43:55;12.10;;;3.87;;
19038;SDS011;9652;49.014;12.052;2022-10-17T07:46:29;5.57;;;3.40;;
19038;SDS011;9652;49.014;12.052;2022-10-17T07:48:56;4.10;;;3.33;;
19038;SDS011;9652;49.014;12.052;2022-10-17T07:51:23;8.63;;;4.03;;
19038;SDS011;9652;49.014;12.052;2022-10-17T07:53:52;7.00;;;3.77;;
19038;SDS011;9652;49.014;12.052;2022-10-17T07:56:20;6.13;;;4.30;;
19038;SDS011;9652;49.014;12.052;2022-10-17T07:58:49;7.43;;;3.70;;
19038;SDS011;9652;49.014;12.052;2022-10-17T08:01:16;6.77;;;4.00;;
19038;SDS011;9652;49.014;12.052;2022-10-17T08:03:43;5.77;;;3.70;;
19038;SDS011;9652;49.014;12.052;2022-10-17T08:06:13;5.83;;;3.63;;
19038;SDS011;9652;49.014;12.052;2022-10-17T08:08:40;4.67;;;3.97;;
19038;SDS011;9652;49.014;12.052;2022-10-17T08:11:09;6.77;;;4.20;;
19038;SDS011;9652;49.014;12.052;2022-10-17T08:13:39;6.73;;;4.93;;
19038;SDS011;9652;49.014;12.052;2022-10-17T08:16:08;8.43;;;4.93;;
19038;SDS011;9652;49.014;12.052;2022-10-17T08:18:38;8.27;;;5.30;;
19038;SDS011;9652;49.014;12.052;2022-10-17T08:21:08;9.53;;;6.30;;
19038;SDS011;9652;49.014;12.052;2022-10-17T08:23:38;10.20;;;5.93;;
19038;SDS011;9652;49.014;12.052;2022-10-17T08:26:06;12.53;;;6.20;;
19038;SDS011;9652;49.014;12.052;2022-10-17T08:28:38;10.83;;;6.77;;
19038;SDS011;9652;49.014;12.052;2022-10-17T08:31:07;10.80;;;6.93;;
19038;SDS011;9652;49.014;12.052;2022-10-17T08:33:37;11.27;;;7.10;;
19038;SDS011;9652;49.014;12.052;2022-10-17T08:36:05;12.13;;;7.70;;
19038;SDS011;9652;49.014;12.052;2022-10-17T08:38:35;12.00;;;7.00;;
19038;SDS011;9652;49.014;12.052;2022-10-17T08:41:05;13.07;;;7.73;;
19038;SDS011;9652;49.014;12.052;2022-10-17T08:43:57;14.67;;;7.60;;
19038;SDS011;9652;49.014;12.052;2022-10-17T08:46:39;17.03;;;8.70;;
19038;SDS011;9652;49.014;12.052;2022-10-17T08:49:12;12.97;;;8.00;;
19038;SDS011;9652;49.014;12.052;2022-10-17T08:51:50;13.70;;;8.40;;
19038;SDS011;9652;49.014;12.052;2022-10-17T08:54:29;12.43;;;8.17;;
19038;SDS011;9652;49.014;12.052;2022-10-17T08:57:07;15.83;;;8.63;;
19038;SDS011;9652;49.014;12.052;2022-10-17T08:59:40;14.87;;;9.80;;
19038;SDS011;9652;49.014;12.052;2022-10-17T09:02:21;17.67;;;10.20;;
19038;SDS011;9652;49.014;12.052;2022-10-17T09:05:13;15.43;;;10.17;;
19038;SDS011;9652;49.014;12.052;2022-10-17T09:08:08;15.90;;;9.27;;
19038;SDS011;9652;49.014;12.052;2022-10-17T09:10:52;17.07;;;9.87;;
19038;SDS011;9652;49.014;12.052;2022-10-17T09:13:29;22.07;;;11.60;;
19038;SDS011;9652;49.014;12.052;2022-10-17T09:16:31;17.67;;;11.17;;
19038;SDS011;9652;49.014;12.052;2022-10-17T09:19:21;15.10;;;11.13;;
19038;SDS011;9652;49.014;12.052;2022-10-17T09:21:54;18.53;;;11.47;;
19038;SDS011;9652;49.014;12.052;2022-10-17T09:24:29;16.93;;;11.23;;
19038;SDS011;9652;49.014;12.052;2022-10-17T09:27:08;22.33;;;12.73;;
19038;SDS011;9652;49.014;12.052;2022-10-17T09:29:48;18.40;;;13.10;;
19038;SDS011;9652;49.014;12.052;2022-10-17T09:32:23;19.93;;;13.90;;
19038;SDS011;9652;49.014;12.052;2022-10-17T09:34:51;20.33;;;13.27;;
19038;SDS011;9652;49.014;12.052;2022-10-17T09:37:21;17.83;;;12.30;;
19038;SDS011;9652;49.014;12.052;2022-10-17T09:39:57;18.03;;;11.83;;
19038;SDS011;9652;49.014;12.052;2022-10-17T09:42:25;17.97;;;12.87;;
19038;SDS011;9652;49.014;12.052;2022-10-17T09:44:54;17.17;;;12.03;;
19038;SDS011;9652;49.014;12.052;2022-10-17T09:47:41;17.27;;;11.93;;
19038;SDS011;9652;49.014;12.052;2022-10-17T09:50:20;16.03;;;11.13;;
19038;SDS011;9652;49.014;12.052;2022-10-17T09:52:53;20.73;;;12.67;;
19038;SDS011;9652;49.014;12.052;2022-10-17T09:55:26;17.23;;;12.63;;
19038;SDS011;9652;49.014;12.052;2022-10-17T09:58:04;18.60;;;12.93;;
19038;SDS011;9652;49.014;12.052;2022-10-17T10:00:35;17.47;;;11.93;;
19038;SDS011;9652;49.014;12.052;2022-10-17T10:03:12;15.80;;;11.63;;
19038;SDS011;9652;49.014;12.052;2022-10-17T10:05:56;17.50;;;11.50;;
19038;SDS011;9652;49.014;12.052;2022-10-17T10:08:28;18.40;;;11.37;;
19038;SDS011;9652;49.014;12.052;2022-10-17T10:10:58;15.57;;;12.07;;
19038;SDS011;9652;49.014;12.052;2022-10-17T10:13:29;17.60;;;11.80;;
19038;SDS011;9652;49.014;12.052;2022-10-17T10:16:12;16.63;;;11.47;;
19038;SDS011;9652;49.014;12.052;2022-10-17T10:18:51;15.63;;;10.30;;
19038;SDS011;9652;49.014;12.052;2022-10-17T10:21:19;15.93;;;10.73;;
19038;SDS011;9652;49.014;12.052;2022-10-17T10:26:39;15.23;;;10.83;;
19038;SDS011;9652;49.014;12.052;2022-10-17T10:29:18;15.40;;;10.73;;
19038;SDS011;9652;49.014;12.052;2022-10-17T10:31:53;15.13;;;10.63;;
19038;SDS011;9652;49.014;12.052;2022-10-17T10:34:23;15.50;;;10.40;;
19038;SDS011;9652;49.014;12.052;2022-10-17T10:36:55;16.67;;;11.13;;
19038;SDS011;9652;49.014;12.052;2022-10-17T10:39:39;14.93;;;9.87;;
19038;SDS011;9652;49.014;12.052;2022-10-17T10:42:24;14.60;;;9.87;;
19038;SDS011;9652;49.014;12.052;2022-10-17T10:44:56;14.10;;;9.80;;
19038;SDS011;9652;49.014;12.052;2022-10-17T10:47:29;21.77;;;10.83;;
19038;SDS011;9652;49.014;12.052;2022-10-17T10:50:15;14.57;;;10.37;;
19038;SDS011;9652;49.014;12.052;2022-10-17T10:52:59;14.33;;;10.03;;
19038;SDS011;9652;49.014;12.052;2022-10-17T10:55:49;15.07;;;10.57;;
19038;SDS011;9652;49.014;12.052;2022-10-17T10:58:27;18.13;;;9.87;;
19038;SDS011;9652;49.014;12.052;2022-10-17T11:01:04;12.50;;;8.97;;
19038;SDS011;9652;49.014;12.052;2022-10-17T11:03:41;14.67;;;9.50;;
19038;SDS011;9652;49.014;12.052;2022-10-17T11:06:24;12.93;;;8.57;;
19038;SDS011;9652;49.014;12.052;2022-10-17T11:09:00;13.70;;;8.83;;
19038;SDS011;9652;49.014;12.052;2022-10-17T11:11:46;13.90;;;9.77;;
19038;SDS011;9652;49.014;12.052;2022-10-17T11:14:22;12.10;;;8.27;;
19038;SDS011;9652;49.014;12.052;2022-10-17T11:17:04;12.03;;;9.00;;
19038;SDS011;9652;49.014;12.052;2022-10-17T11:19:47;12.70;;;8.00;;
19038;SDS011;9652;49.014;12.052;2022-10-17T11:22:27;11.57;;;8.37;;
19038;SDS011;9652;49.014;12.052;2022-10-17T11:24:58;12.53;;;7.63;;
19038;SDS011;9652;49.014;12.052;2022-10-17T11:27:31;12.00;;;7.63;;
19038;SDS011;9652;49.014;12.052;2022-10-17T11:30:00;11.37;;;7.47;;
19038;SDS011;9652;49.014;12.052;2022-10-17T11:32:30;11.40;;;8.00;;
19038;SDS011;9652;49.014;12.052;2022-10-17T11:35:05;10.57;;;6.67;;
19038;SDS011;9652;49.014;12.052;2022-10-17T11:37:48;12.60;;;7.80;;
19038;SDS011;9652;49.014;12.052;2022-10-17T11:40:26;14.43;;;7.47;;
19038;SDS011;9652;49.014;12.052;2022-10-17T11:42:59;9.17;;;6.93;;
19038;SDS011;9652;49.014;12.052;2022-10-17T11:45:32;8.53;;;6.27;;
19038;SDS011;9652;49.014;12.052;2022-10-17T11:48:09;9.10;;;6.80;;
19038;SDS011;9652;49.014;12.052;2022-10-17T11:50:48;8.53;;;6.53;;
19038;SDS011;9652;49.014;12.052;2022-10-17T11:53:29;10.73;;;6.67;;
19038;SDS011;9652;49.014;12.052;2022-10-17T11:56:07;12.23;;;7.40;;
19038;SDS011;9652;49.014;12.052;2022-10-17T11:58:39;9.03;;;6.97;;
19038;SDS011;9652;49.014;12.052;2022-10-17T12:01:17;9.87;;;6.57;;
19038;SDS011;9652;49.014;12.052;2022-10-17T12:04:13;9.97;;;7.33;;
19038;SDS011;9652;49.014;12.052;2022-10-17T12:07:00;9.97;;;6.90;;
19038;SDS011;9652;49.014;12.052;2022-10-17T12:09:42;9.00;;;6.70;;
19038;SDS011;9652;49.014;12.052;2022-10-17T12:12:22;9.90;;;6.63;;
19038;SDS011;9652;49.014;12.052;2022-10-17T12:14:52;9.37;;;6.50;;
19038;SDS011;9652;49.014;12.052;2022-10-17T12:17:30;9.00;;;7.03;;
19038;SDS011;9652;49.014;12.052;2022-10-17T12:20:16;9.20;;;6.80;;
19038;SDS011;9652;49.014;12.052;2022-10-17T12:23:16;8.70;;;6.40;;
19038;SDS011;9652;49.014;12.052;2022-10-17T12:25:54;9.27;;;6.63;;
19038;SDS011;9652;49.014;12.052;2022-10-17T12:28:26;8.37;;;6.03;;
19038;SDS011;9652;49.014;12.052;2022-10-17T12:30:57;7.93;;;5.93;;
19038;SDS011;9652;49.014;12.052;2022-10-17T12:33:33;10.20;;;6.50;;
19038;SDS011;9652;49.014;12.052;2022-10-17T12:42:43;8.40;;;6.07;;
19038;SDS011;9652;49.014;12.052;2022-10-17T12:48:26;8.30;;;6.07;;
19038;SDS011;9652;49.014;12.052;2022-10-17T12:55:22;9.23;;;6.57;;
19038;SDS011;9652;49.014;12.052;2022-10-17T12:57:53;8.40;;;6.30;;
19038;SDS011;9652;49.014;12.052;2022-10-17T13:00:35;7.67;;;6.23;;
19038;SDS011;9652;49.014;12.052;2022-10-17T13:03:10;7.83;;;6.43;;
19038;SDS011;9652;49.014;12.052;2022-10-17T13:05:42;8.27;;;6.33;;
19038;SDS011;9652;49.014;12.052;2022-10-17T13:08:15;9.57;;;7.03;;
19038;SDS011;9652;49.014;12.052;2022-10-17T13:10:48;8.97;;;6.57;;
19038;SDS011;9652;49.014;12.052;2022-10-17T13:13:19;8.57;;;6.60;;
19038;SDS011;9652;49.014;12.052;2022-10-17T13:15:51;10.00;;;6.47;;
19038;SDS011;9652;49.014;12.052;2022-10-17T13:18:21;9.60;;;7.07;;
19038;SDS011;9652;49.014;12.052;2022-10-17T13:20:53;9.13;;;6.97;;
19038;SDS011;9652;49.014;12.052;2022-10-17T13:23:23;8.50;;;6.17;;
19038;SDS011;9652;49.014;12.052;2022-10-17T13:26:04;8.77;;;6.60;;
19038;SDS011;9652;49.014;12.052;2022-10-17T13:28:45;8.10;;;6.20;;
19038;SDS011;9652;49.014;12.052;2022-10-17T13:31:28;9.50;;;6.77;;
19038;SDS011;9652;49.014;12.052;2022-10-17T13:33:57;8.27;;;6.43;;
19038;SDS011;9652;49.014;12.052;2022-10-17T13:36:27;6.77;;;5.70;;
19038;SDS011;9652;49.014;12.052;2022-10-17T13:38:56;8.70;;;6.23;;
19038;SDS011;9652;49.014;12.052;2022-10-17T13:41:30;10.43;;;6.93;;
19038;SDS011;9652;49.014;12.052;2022-10-17T13:44:00;9.07;;;5.73;;
19038;SDS011;9652;49.014;12.052;2022-10-17T13:46:33;8.83;;;5.93;;
19038;SDS011;9652;49.014;12.052;2022-10-17T13:49:07;5.77;;;4.90;;
19038;SDS011;9652;49.014;12.052;2022-10-17T13:51:41;11.40;;;5.53;;
19038;SDS011;9652;49.014;12.052;2022-10-17T13:57:13;10.73;;;5.40;;
19038;SDS011;9652;49.014;12.052;2022-10-17T13:59:48;6.63;;;4.60;;
19038;SDS011;9652;49.014;12.052;2022-10-17T14:02:18;5.53;;;4.50;;
19038;SDS011;9652;49.014;12.052;2022-10-17T14:04:58;6.17;;;4.93;;
19038;SDS011;9652;49.014;12.052;2022-10-17T14:07:27;5.40;;;4.63;;
19038;SDS011;9652;49.014;12.052;2022-10-17T14:10:02;5.80;;;4.17;;
19038;SDS011;9652;49.014;12.052;2022-10-17T14:12:32;7.70;;;4.50;;
19038;SDS011;9652;49.014;12.052;2022-10-17T14:15:01;8.33;;;4.63;;
19038;SDS011;9652;49.014;12.052;2022-10-17T14:17:30;5.63;;;4.37;;
19038;SDS011;9652;49.014;12.052;2022-10-17T14:19:58;5.53;;;3.80;;
19038;SDS011;9652;49.014;12.052;2022-10-17T14:22:32;4.80;;;3.97;;
19038;SDS011;9652;49.014;12.052;2022-10-17T14:25:02;5.57;;;4.27;;
19038;SDS011;9652;49.014;12.052;2022-10-17T14:27:31;6.30;;;4.53;;
19038;SDS011;9652;49.014;12.052;2022-10-17T14:30:04;5.47;;;4.33;;
19038;SDS011;9652;49.014;12.052;2022-10-17T14:33:04;4.47;;;3.63;;
19038;SDS011;9652;49.014;12.052;2022-10-17T14:35:33;5.03;;;3.67;;
19038;SDS011;9652;49.014;12.052;2022-10-17T14:38:02;6.37;;;4.27;;
19038;SDS011;9652;49.014;12.052;2022-10-17T14:40:32;5.63;;;3.93;;
19038;SDS011;9652;49.014;12.052;2022-10-17T14:43:02;4.87;;;4.03;;
19038;SDS011;9652;49.014;12.052;2022-10-17T14:45:33;5.07;;;3.77;;
19038;SDS011;9652;49.014;12.052;2022-10-17T14:48:04;4.53;;;4.00;;
19038;SDS011;9652;49.014;12.052;2022-10-17T14:50:38;5.57;;;3.63;;
19038;SDS011;9652;49.014;12.052;2022-10-17T14:53:18;3.90;;;3.50;;
19038;SDS011;9652;49.014;12.052;2022-10-17T14:55:53;4.90;;;3.93;;
19038;SDS011;9652;49.014;12.052;2022-10-17T14:58:23;4.90;;;3.90;;
19038;SDS011;9652;49.014;12.052;2022-10-17T15:00:54;5.23;;;3.90;;
19038;SDS011;9652;49.014;12.052;2022-10-17T15:03:23;7.17;;;4.23;;
19038;SDS011;9652;49.014;12.052;2022-10-17T15:05:51;4.30;;;3.67;;
19038;SDS011;9652;49.014;12.052;2022-10-17T15:08:21;4.60;;;3.47;;
19038;SDS011;9652;49.014;12.052;2022-10-17T15:10:49;7.20;;;3.67;;
19038;SDS011;9652;49.014;12.052;2022-10-17T15:13:17;5.57;;;3.63;;
19038;SDS011;9652;49.014;12.052;2022-10-17T15:15:44;4.70;;;3.73;;
19038;SDS011;9652;49.014;12.052;2022-10-17T15:18:16;6.23;;;4.00;;
19038;SDS011;9652;49.014;12.052;2022-10-17T15:20:43;6.00;;;4.03;;
19038;SDS011;9652;49.014;12.052;2022-10-17T15:23:11;5.93;;;4.77;;
19038;SDS011;9652;49.014;12.052;2022-10-17T15:25:38;5.00;;;4.07;;
19038;SDS011;9652;49.014;12.052;2022-10-17T15:28:05;6.80;;;4.50;;
19038;SDS011;9652;49.014;12.052;2022-10-17T15:30:33;5.50;;;4.63;;
19038;SDS011;9652;49.014;12.052;2022-10-17T15:33:01;8.50;;;4.40;;
19038;SDS011;9652;49.014;12.052;2022-10-17T15:35:30;5.53;;;4.53;;
19038;SDS011;9652;49.014;12.052;2022-10-17T15:37:57;7.30;;;5.33;;
19038;SDS011;9652;49.014;12.052;2022-10-17T15:40:25;6.77;;;5.13;;
19038;SDS011;9652;49.014;12.052;2022-10-17T15:42:54;5.93;;;4.80;;
19038;SDS011;9652;49.014;12.052;2022-10-17T15:45:22;5.97;;;4.93;;